Time;durP1;ratioP1;P1;durP2;ratioP2;P2;SDS_P1;SDS_P2;PMS_P1;PMS_P2;Temp;Humidity;BMP_temperature;BMP_pressure;BME280_temperature;BME280_humidity;BME280_pressure;Samples;Min_cycle;Max_cycle;Signal;HPM_P1;HPM_P2
2021/08/06 00:01:18;;;;;;;24.60;22.20;;;15.50;99.90;;;;;;4998377;28;20202;-61
2021/08/06 00:03:46;;;;;;;25.10;20.23;;;15.40;99.90;;;;;;4998944;28;20320;-60
2021/08/06 00:06:16;;;;;;;22.48;20.05;;;15.30;99.90;;;;;;4999368;28;20199;-61
2021/08/06 00:08:43;;;;;;;26.83;19.90;;;15.20;99.90;;;;;;4998996;28;20227;-62
2021/08/06 00:11:10;;;;;;;21.13;18.23;;;15.10;99.90;;;;;;4989386;28;20262;-61
2021/08/06 00:13:37;;;;;;;24.02;19.45;;;15.00;99.90;;;;;;4986739;28;20326;-61
2021/08/06 00:16:04;;;;;;;20.75;18.00;;;15.10;99.90;;;;;;4989830;28;20201;-61
2021/08/06 00:18:31;;;;;;;21.17;18.77;;;15.10;99.90;;;;;;4999719;28;20206;-59
2021/08/06 00:20:58;;;;;;;21.45;19.27;;;15.20;99.90;;;;;;4999648;28;20431;-59
2021/08/06 00:23:25;;;;;;;20.77;18.17;;;15.10;99.90;;;;;;5000418;28;20251;-61
2021/08/06 00:25:52;;;;;;;21.67;19.38;;;15.10;99.90;;;;;;5001191;28;20203;-60
2021/08/06 00:28:19;;;;;;;22.88;20.38;;;15.10;99.90;;;;;;5006187;28;20257;-60
2021/08/06 00:30:46;;;;;;;24.30;21.73;;;15.10;99.90;;;;;;4993698;28;20236;-60
2021/08/06 00:33:13;;;;;;;24.40;20.67;;;15.00;99.90;;;;;;5000639;28;20281;-60
2021/08/06 00:35:40;;;;;;;31.30;22.63;;;15.00;99.90;;;;;;4997987;28;20535;-59
2021/08/06 00:38:07;;;;;;;24.15;21.45;;;15.00;99.90;;;;;;4996973;28;20208;-60
2021/08/06 00:40:34;;;;;;;24.67;22.02;;;15.00;99.90;;;;;;5000494;28;20201;-60
2021/08/06 00:43:01;;;;;;;23.38;19.13;;;15.00;99.90;;;;;;5000963;28;20198;-60
2021/08/06 00:45:29;;;;;;;26.23;21.92;;;15.00;99.90;;;;;;5000296;28;20491;-59
2021/08/06 00:47:56;;;;;;;26.40;23.25;;;14.90;99.90;;;;;;4994312;28;20198;-60
2021/08/06 00:50:23;;;;;;;22.70;20.27;;;14.90;99.90;;;;;;5000314;28;20222;-60
2021/08/06 00:52:51;;;;;;;25.23;21.85;;;14.90;99.90;;;;;;4992921;28;20201;-60
2021/08/06 00:55:18;;;;;;;28.50;23.42;;;15.00;99.90;;;;;;4999921;28;20424;-59
2021/08/06 00:57:45;;;;;;;29.50;22.77;;;14.90;99.90;;;;;;4992157;28;20513;-60
2021/08/06 01:00:15;;;;;;;23.83;21.38;;;14.90;99.90;;;;;;4996132;28;20505;-61
2021/08/06 01:02:55;;;;;;;29.98;21.65;;;14.90;99.90;;;;;;4993786;28;20205;-61
2021/08/06 01:05:29;;;;;;;24.38;20.98;;;14.90;99.90;;;;;;4999400;28;20296;-61
2021/08/06 01:07:59;;;;;;;25.33;22.73;;;14.90;99.90;;;;;;5005674;28;20201;-60
2021/08/06 01:10:42;;;;;;;28.80;21.95;;;14.90;99.90;;;;;;5005463;28;20538;-60
2021/08/06 01:13:11;;;;;;;25.40;21.98;;;14.90;99.90;;;;;;5004985;28;20316;-60
2021/08/06 01:15:40;;;;;;;26.77;23.38;;;14.80;99.90;;;;;;4999616;28;20201;-62
2021/08/06 01:18:11;;;;;;;25.73;21.80;;;14.80;99.90;;;;;;4993775;28;20209;-63
2021/08/06 01:20:42;;;;;;;24.55;20.95;;;14.80;99.90;;;;;;4996347;28;20340;-61
2021/08/06 01:23:18;;;;;;;23.75;20.65;;;14.70;99.90;;;;;;5008543;28;20234;-62
2021/08/06 01:25:50;;;;;;;24.75;20.77;;;14.80;99.90;;;;;;4980265;28;20210;-61
2021/08/06 01:28:24;;;;;;;22.83;20.42;;;14.70;99.90;;;;;;5002634;28;20267;-62
2021/08/06 01:30:52;;;;;;;26.38;21.02;;;14.80;99.90;;;;;;4995627;28;20206;-62
2021/08/06 01:33:20;;;;;;;23.35;19.63;;;14.80;99.90;;;;;;4997210;28;20197;-62
2021/08/06 01:35:47;;;;;;;20.85;18.55;;;14.80;99.90;;;;;;4989554;28;20257;-62
2021/08/06 01:38:16;;;;;;;22.80;19.35;;;14.80;99.90;;;;;;4982815;28;20484;-59
2021/08/06 01:41:10;;;;;;;19.00;17.20;;;14.80;99.90;;;;;;4990968;28;20214;-61
2021/08/06 01:43:40;;;;;;;21.20;18.90;;;14.80;99.90;;;;;;4998079;28;20424;-62
2021/08/06 01:46:12;;;;;;;22.50;20.23;;;14.80;99.90;;;;;;5011411;28;20251;-62
2021/08/06 01:48:44;;;;;;;20.20;17.80;;;14.80;99.90;;;;;;4981649;28;20503;-61
2021/08/06 01:51:14;;;;;;;19.08;17.15;;;14.70;99.90;;;;;;4980160;28;20389;-62
2021/08/06 01:53:46;;;;;;;19.42;17.20;;;14.80;99.90;;;;;;4993090;28;20245;-61
2021/08/06 01:56:18;;;;;;;21.73;18.23;;;14.80;99.90;;;;;;4990286;28;20392;-62
2021/08/06 01:58:51;;;;;;;21.83;19.63;;;14.80;99.90;;;;;;4998781;28;20209;-61
2021/08/06 02:01:19;;;;;;;20.98;18.83;;;14.80;99.90;;;;;;4999112;28;20503;-61
2021/08/06 02:03:46;;;;;;;19.60;17.50;;;14.70;99.90;;;;;;4998807;28;20229;-61
2021/08/06 02:06:18;;;;;;;21.40;19.10;;;14.80;99.90;;;;;;4999297;28;20206;-61
2021/08/06 02:08:47;;;;;;;24.33;19.90;;;14.80;99.90;;;;;;4998154;28;20547;-61
2021/08/06 02:11:20;;;;;;;21.50;18.52;;;14.70;99.90;;;;;;4991115;28;20293;-61
2021/08/06 02:13:50;;;;;;;25.88;19.63;;;14.80;99.90;;;;;;4993012;28;20260;-61
2021/08/06 02:16:18;;;;;;;19.30;17.27;;;14.80;99.90;;;;;;4979371;28;20211;-61
2021/08/06 02:18:49;;;;;;;25.73;18.67;;;14.80;99.90;;;;;;4980323;28;20269;-61
2021/08/06 02:21:24;;;;;;;20.88;18.15;;;14.80;99.90;;;;;;4998551;28;20536;-61
2021/08/06 02:23:54;;;;;;;20.65;18.55;;;14.80;99.90;;;;;;4992632;28;20225;-61
2021/08/06 02:26:22;;;;;;;19.92;17.88;;;14.80;99.90;;;;;;4988591;28;20197;-61
2021/08/06 02:28:50;;;;;;;26.83;20.08;;;14.80;99.90;;;;;;4999250;28;20206;-62
2021/08/06 02:31:19;;;;;;;21.55;19.13;;;14.80;99.90;;;;;;4997528;28;20503;-61
2021/08/06 02:33:47;;;;;;;21.50;19.17;;;14.80;99.90;;;;;;4999433;28;20558;-61
2021/08/06 02:36:14;;;;;;;22.02;19.65;;;14.80;99.90;;;;;;4998872;28;20260;-61
2021/08/06 02:38:41;;;;;;;27.27;21.30;;;14.80;99.90;;;;;;4999074;28;20205;-60
2021/08/06 02:41:08;;;;;;;28.23;23.00;;;14.80;99.90;;;;;;4993322;28;20394;-60
2021/08/06 02:43:38;;;;;;;27.52;21.27;;;14.80;99.90;;;;;;4997824;28;20232;-61
2021/08/06 02:46:06;;;;;;;23.63;21.27;;;14.80;99.90;;;;;;4998159;28;20201;-61
2021/08/06 02:48:33;;;;;;;22.58;19.80;;;14.80;99.90;;;;;;4993324;28;20269;-60
2021/08/06 02:51:00;;;;;;;22.88;20.45;;;14.70;99.90;;;;;;4998288;28;20256;-59
2021/08/06 02:53:27;;;;;;;23.05;19.80;;;14.80;99.90;;;;;;4997664;28;20203;-62
2021/08/06 02:55:54;;;;;;;24.05;20.73;;;14.80;99.90;;;;;;4998048;28;20202;-60
2021/08/06 02:58:21;;;;;;;23.08;19.75;;;14.80;99.90;;;;;;4997775;28;20251;-60
2021/08/06 03:00:49;;;;;;;28.70;21.48;;;14.80;99.90;;;;;;4997182;28;20558;-60
2021/08/06 03:03:16;;;;;;;22.63;19.85;;;14.80;99.90;;;;;;4997371;28;20216;-61
2021/08/06 03:05:44;;;;;;;24.25;19.98;;;14.80;99.90;;;;;;4979164;28;20201;-60
2021/08/06 03:08:11;;;;;;;25.25;20.80;;;14.80;99.90;;;;;;4989060;28;20202;-63
2021/08/06 03:10:39;;;;;;;23.88;21.27;;;14.90;99.90;;;;;;4997132;28;20233;-61
2021/08/06 03:13:06;;;;;;;24.70;22.10;;;14.90;99.90;;;;;;5006383;28;20392;-61
2021/08/06 03:15:33;;;;;;;24.80;21.70;;;14.90;99.90;;;;;;5001749;28;20233;-62
2021/08/06 03:18:00;;;;;;;28.08;23.08;;;14.80;99.90;;;;;;4997394;28;20265;-62
2021/08/06 03:20:28;;;;;;;26.35;21.83;;;14.80;99.90;;;;;;4991351;28;20272;-62
2021/08/06 03:22:55;;;;;;;25.23;22.40;;;14.80;99.90;;;;;;4997414;28;20500;-60
2021/08/06 03:25:22;;;;;;;26.30;22.00;;;14.80;99.90;;;;;;4994645;28;20221;-61
2021/08/06 03:27:49;;;;;;;29.75;23.73;;;14.80;99.90;;;;;;4995182;28;20265;-60
2021/08/06 03:30:17;;;;;;;26.27;22.98;;;14.80;99.90;;;;;;4994671;28;20283;-60
2021/08/06 03:32:44;;;;;;;25.65;22.80;;;14.90;99.90;;;;;;4980851;28;20198;-60
2021/08/06 03:35:13;;;;;;;26.13;21.80;;;14.80;99.90;;;;;;4980065;28;20218;-59
2021/08/06 03:37:41;;;;;;;27.70;23.17;;;14.80;99.90;;;;;;4982186;28;20590;-60
2021/08/06 03:40:08;;;;;;;25.88;23.08;;;14.80;99.90;;;;;;4981834;28;20206;-60
2021/08/06 03:42:35;;;;;;;30.33;22.90;;;14.80;99.90;;;;;;4979689;28;20198;-60
2021/08/06 03:45:04;;;;;;;25.70;21.33;;;14.80;99.90;;;;;;4984634;28;20552;-61
2021/08/06 03:47:31;;;;;;;25.88;21.98;;;14.80;99.90;;;;;;4980708;28;20546;-60
2021/08/06 03:49:58;;;;;;;27.08;21.70;;;14.80;99.90;;;;;;4980910;28;20221;-61
2021/08/06 03:52:25;;;;;;;27.95;21.67;;;14.80;99.90;;;;;;4979908;28;20198;-60
2021/08/06 03:54:52;;;;;;;26.58;21.13;;;14.80;99.90;;;;;;4981070;28;20245;-60
2021/08/06 03:57:19;;;;;;;27.50;19.83;;;14.80;99.90;;;;;;4981623;28;20249;-60
2021/08/06 03:59:46;;;;;;;28.00;23.02;;;14.70;99.90;;;;;;4978594;28;20210;-60
2021/08/06 04:02:14;;;;;;;28.98;22.98;;;14.80;99.90;;;;;;4977943;28;20210;-61
2021/08/06 04:04:41;;;;;;;25.40;22.00;;;14.80;99.90;;;;;;4979797;28;20256;-60
2021/08/06 04:07:09;;;;;;;29.38;24.85;;;14.80;99.90;;;;;;4977469;28;20236;-61
2021/08/06 04:09:36;;;;;;;29.65;23.88;;;14.80;99.90;;;;;;4979384;28;20540;-61
2021/08/06 04:12:03;;;;;;;27.45;21.95;;;14.80;99.90;;;;;;4981415;28;20199;-60
2021/08/06 04:14:30;;;;;;;25.02;21.30;;;14.90;99.90;;;;;;4978702;28;20198;-60
2021/08/06 04:16:57;;;;;;;27.15;22.15;;;14.80;99.90;;;;;;4976857;28;20312;-60
2021/08/06 04:19:24;;;;;;;25.85;21.60;;;14.90;99.90;;;;;;4979139;28;20209;-60
2021/08/06 04:21:51;;;;;;;25.83;22.65;;;14.90;99.90;;;;;;4979695;28;20198;-60
2021/08/06 04:24:18;;;;;;;34.08;25.80;;;14.90;99.90;;;;;;4979853;28;20218;-61
2021/08/06 04:26:45;;;;;;;33.10;26.27;;;14.90;99.90;;;;;;4979276;28;20267;-61
2021/08/06 04:29:12;;;;;;;35.65;27.20;;;14.90;99.90;;;;;;4980693;28;20202;-60
2021/08/06 04:31:39;;;;;;;31.73;26.40;;;15.00;99.90;;;;;;4983555;28;20207;-60
2021/08/06 04:34:06;;;;;;;33.08;25.70;;;15.00;99.90;;;;;;4980720;28;20203;-60
2021/08/06 04:36:33;;;;;;;26.58;22.23;;;15.00;99.90;;;;;;4979008;28;20377;-59
2021/08/06 04:39:00;;;;;;;24.15;20.77;;;15.00;99.90;;;;;;4979608;28;20362;-62
2021/08/06 04:41:27;;;;;;;25.42;20.13;;;15.00;99.90;;;;;;4979849;28;20245;-62
2021/08/06 04:43:54;;;;;;;19.50;17.48;;;15.00;99.90;;;;;;4979450;28;20256;-61
2021/08/06 04:46:21;;;;;;;20.55;18.55;;;15.10;99.90;;;;;;4982940;28;20265;-61
2021/08/06 04:48:48;;;;;;;20.30;16.13;;;15.10;99.90;;;;;;4982052;28;20200;-61
2021/08/06 04:51:15;;;;;;;18.80;16.77;;;15.10;99.90;;;;;;4984480;28;20230;-60
2021/08/06 04:53:42;;;;;;;19.77;16.73;;;15.20;99.90;;;;;;4986130;28;20198;-60
2021/08/06 04:56:09;;;;;;;18.23;15.50;;;15.20;99.90;;;;;;4982207;28;20410;-61
2021/08/06 04:58:36;;;;;;;17.85;15.80;;;15.20;99.90;;;;;;4983996;28;20560;-59
2021/08/06 05:01:03;;;;;;;17.17;15.45;;;15.20;99.90;;;;;;4981338;28;20203;-61
2021/08/06 05:03:31;;;;;;;20.00;17.70;;;15.30;99.90;;;;;;4980294;28;20198;-61
2021/08/06 05:05:58;;;;;;;18.60;16.67;;;15.30;99.90;;;;;;4980680;28;20257;-61
2021/08/06 05:08:25;;;;;;;14.90;13.60;;;15.30;99.90;;;;;;4985449;28;20222;-60
2021/08/06 05:10:52;;;;;;;19.67;17.85;;;15.30;99.90;;;;;;4981329;28;20600;-61
2021/08/06 05:13:19;;;;;;;17.58;15.88;;;15.30;99.90;;;;;;4984305;28;20382;-60
2021/08/06 05:15:46;;;;;;;18.80;16.55;;;15.30;99.90;;;;;;4995776;28;20378;-59
2021/08/06 05:18:13;;;;;;;19.67;17.67;;;15.30;99.90;;;;;;4981915;28;20202;-59
2021/08/06 05:20:40;;;;;;;19.73;17.77;;;15.40;99.90;;;;;;4982226;28;20210;-59
2021/08/06 05:23:07;;;;;;;20.95;18.73;;;15.40;99.90;;;;;;4981252;28;20207;-59
2021/08/06 05:25:34;;;;;;;21.02;18.80;;;15.40;99.90;;;;;;4987786;28;20223;-61
2021/08/06 05:28:01;;;;;;;20.33;18.40;;;15.40;99.90;;;;;;4984704;28;20253;-61
2021/08/06 05:30:28;;;;;;;20.25;18.33;;;15.40;99.90;;;;;;4987236;28;20226;-60
2021/08/06 05:32:55;;;;;;;19.27;17.38;;;15.40;99.90;;;;;;4981396;28;20258;-60
2021/08/06 05:35:22;;;;;;;17.83;15.93;;;15.40;99.90;;;;;;4981764;28;20210;-59
2021/08/06 05:37:49;;;;;;;20.33;17.25;;;15.40;99.90;;;;;;4981674;28;20203;-59
2021/08/06 05:40:17;;;;;;;23.08;17.48;;;15.60;99.90;;;;;;4982822;28;20292;-61
2021/08/06 05:42:44;;;;;;;19.40;17.60;;;15.50;99.90;;;;;;4984911;28;20261;-61
2021/08/06 05:45:11;;;;;;;19.23;17.42;;;15.60;99.90;;;;;;4981484;28;20283;-61
2021/08/06 05:47:46;;;;;;;15.65;14.15;;;15.60;99.90;;;;;;4984687;28;20199;-61
2021/08/06 05:50:15;;;;;;;18.65;16.95;;;15.70;99.90;;;;;;4981521;28;20261;-60
2021/08/06 05:52:42;;;;;;;20.33;16.85;;;15.80;99.90;;;;;;4981606;28;20453;-60
2021/08/06 05:55:10;;;;;;;18.70;16.67;;;15.80;99.90;;;;;;4983208;28;20213;-60
2021/08/06 05:57:37;;;;;;;19.25;17.17;;;15.70;99.90;;;;;;4980919;28;20285;-59
2021/08/06 06:00:07;;;;;;;18.00;16.17;;;15.70;99.90;;;;;;4980456;28;20203;-60
2021/08/06 06:02:34;;;;;;;17.35;15.70;;;15.70;99.90;;;;;;4981643;28;20203;-59
2021/08/06 06:05:03;;;;;;;19.00;17.15;;;15.70;99.90;;;;;;4981112;28;20449;-59
2021/08/06 06:07:30;;;;;;;19.30;17.30;;;15.80;99.90;;;;;;4979086;28;20239;-59
2021/08/06 06:09:57;;;;;;;18.23;16.48;;;15.90;99.90;;;;;;4981693;28;20226;-59
2021/08/06 06:12:24;;;;;;;16.75;15.00;;;15.90;99.90;;;;;;4982796;28;20201;-59
2021/08/06 06:14:51;;;;;;;17.27;15.68;;;16.10;99.90;;;;;;4983468;28;20254;-60
2021/08/06 06:17:18;;;;;;;16.75;15.15;;;16.30;99.90;;;;;;4980647;28;20229;-59
2021/08/06 06:19:46;;;;;;;17.27;15.48;;;16.50;99.90;;;;;;4979446;28;20203;-59
2021/08/06 06:22:13;;;;;;;17.90;16.15;;;16.60;99.90;;;;;;4979285;28;20205;-60
2021/08/06 06:24:41;;;;;;;18.13;16.53;;;16.70;99.90;;;;;;4983939;28;20244;-60
2021/08/06 06:27:09;;;;;;;17.90;16.10;;;16.70;99.90;;;;;;4984181;28;20559;-60
2021/08/06 06:29:36;;;;;;;16.33;14.80;;;16.80;99.90;;;;;;4980701;28;20524;-60
2021/08/06 06:32:03;;;;;;;15.07;13.57;;;16.90;99.90;;;;;;4984047;28;20508;-59
2021/08/06 06:34:30;;;;;;;18.73;16.93;;;16.90;99.90;;;;;;4985590;28;20237;-60
2021/08/06 06:36:57;;;;;;;15.83;14.23;;;17.20;99.90;;;;;;4978945;28;20459;-59
2021/08/06 06:39:24;;;;;;;14.20;12.27;;;17.40;99.90;;;;;;4978536;28;20489;-60
2021/08/06 06:41:51;;;;;;;12.90;11.70;;;17.80;99.90;;;;;;4977999;28;20446;-60
2021/08/06 06:44:19;;;;;;;16.20;14.60;;;17.90;99.90;;;;;;4979679;28;20485;-59
2021/08/06 06:46:46;;;;;;;15.70;14.20;;;18.10;99.90;;;;;;4983492;28;20412;-60
2021/08/06 06:49:13;;;;;;;13.70;12.50;;;18.30;99.90;;;;;;4983154;28;20417;-60
2021/08/06 06:51:40;;;;;;;13.13;11.93;;;18.20;99.90;;;;;;4980544;28;20735;-61
2021/08/06 06:54:07;;;;;;;12.30;11.30;;;18.70;99.90;;;;;;4980653;28;20427;-60
2021/08/06 06:56:34;;;;;;;10.83;9.93;;;18.90;99.90;;;;;;4979795;28;20422;-60
2021/08/06 06:59:01;;;;;;;13.13;9.03;;;19.10;99.90;;;;;;4979141;28;20643;-60
2021/08/06 07:01:29;;;;;;;12.70;9.53;;;19.00;99.90;;;;;;4978459;28;20442;-60
2021/08/06 07:03:56;;;;;;;11.27;10.10;;;19.00;99.90;;;;;;4980307;28;20597;-59
2021/08/06 07:06:24;;;;;;;11.80;9.47;;;19.10;99.90;;;;;;4980215;28;20409;-59
2021/08/06 07:08:51;;;;;;;11.50;10.40;;;19.10;99.90;;;;;;4992808;28;20415;-59
2021/08/06 07:11:18;;;;;;;10.63;8.73;;;19.40;99.90;;;;;;4979814;28;20880;-59
2021/08/06 07:13:45;;;;;;;10.03;9.20;;;19.50;99.90;;;;;;4984542;28;20658;-61
2021/08/06 07:16:12;;;;;;;9.17;8.20;;;19.40;99.90;;;;;;4979126;28;20486;-59
2021/08/06 07:18:39;;;;;;;9.20;8.40;;;19.50;99.90;;;;;;4979613;28;20440;-59
2021/08/06 07:21:10;;;;;;;8.77;8.00;;;20.00;99.90;;;;;;4982413;28;20440;-61
2021/08/06 07:23:37;;;;;;;8.63;7.83;;;20.00;99.90;;;;;;4979562;28;20422;-61
2021/08/06 07:26:04;;;;;;;8.70;8.00;;;20.00;99.90;;;;;;4983679;28;20418;-60
2021/08/06 07:28:31;;;;;;;9.40;8.70;;;19.70;99.90;;;;;;4982314;28;20417;-61
2021/08/06 07:30:58;;;;;;;8.20;7.40;;;19.90;99.90;;;;;;4983561;28;20599;-61
2021/08/06 07:33:25;;;;;;;7.90;7.20;;;20.00;99.90;;;;;;4983241;28;20536;-61
2021/08/06 07:35:52;;;;;;;9.40;8.50;;;20.00;99.90;;;;;;4982263;28;20603;-60
2021/08/06 07:38:19;;;;;;;7.40;6.80;;;20.00;99.90;;;;;;4979206;28;20411;-59
2021/08/06 07:40:46;;;;;;;7.10;6.17;;;20.20;99.90;;;;;;4981968;28;20418;-60
2021/08/06 07:43:13;;;;;;;8.23;7.43;;;20.10;99.90;;;;;;4987799;28;20457;-61
2021/08/06 07:45:43;;;;;;;8.00;7.40;;;20.00;99.90;;;;;;4984980;28;20422;-61
2021/08/06 07:48:11;;;;;;;8.73;8.00;;;20.10;99.90;;;;;;4982080;28;20457;-61
2021/08/06 07:50:38;;;;;;;7.90;7.10;;;20.30;99.90;;;;;;4979616;28;20530;-60
2021/08/06 07:53:05;;;;;;;7.80;6.33;;;20.50;99.90;;;;;;4982574;28;20565;-61
2021/08/06 07:55:32;;;;;;;7.30;6.70;;;20.50;99.90;;;;;;4980503;28;20740;-59
2021/08/06 07:57:59;;;;;;;6.93;6.33;;;20.50;99.90;;;;;;4982331;28;20424;-60
2021/08/06 08:00:26;;;;;;;7.57;6.97;;;20.50;99.90;;;;;;4981036;28;20421;-60
2021/08/06 08:02:55;;;;;;;6.97;6.07;;;20.80;99.90;;;;;;4985161;28;20741;-60
2021/08/06 08:05:23;;;;;;;6.13;5.63;;;21.20;99.90;;;;;;4980943;28;20445;-60
2021/08/06 08:07:50;;;;;;;6.47;5.97;;;21.30;99.90;;;;;;4977341;28;20844;-60
2021/08/06 08:10:22;;;;;;;6.10;5.53;;;21.30;99.90;;;;;;4984092;28;20549;-59
2021/08/06 08:13:06;;;;;;;5.50;5.00;;;21.30;99.90;;;;;;4978961;28;20415;-59
2021/08/06 08:15:34;;;;;;;5.03;4.63;;;21.50;99.90;;;;;;4982098;28;20435;-61
2021/08/06 08:18:01;;;;;;;10.33;5.60;;;21.20;99.90;;;;;;4981007;28;20618;-60
2021/08/06 08:20:28;;;;;;;3.73;3.40;;;20.90;99.90;;;;;;4980258;28;20423;-60
2021/08/06 08:22:55;;;;;;;6.00;4.73;;;21.00;99.90;;;;;;4983211;28;20784;-60
2021/08/06 08:25:22;;;;;;;3.90;3.60;;;21.20;99.90;;;;;;4982630;28;20437;-61
2021/08/06 08:27:49;;;;;;;6.90;3.57;;;21.50;99.90;;;;;;4988242;28;20676;-61
2021/08/06 08:30:17;;;;;;;3.10;2.90;;;21.80;99.90;;;;;;4986087;28;20463;-60
2021/08/06 08:32:44;;;;;;;4.43;3.10;;;21.80;99.90;;;;;;4986914;28;20605;-60
2021/08/06 08:35:12;;;;;;;3.43;3.13;;;21.60;99.90;;;;;;4984618;28;20954;-61
2021/08/06 08:37:39;;;;;;;3.30;3.10;;;21.40;99.90;;;;;;5004274;28;20546;-60
2021/08/06 08:40:07;;;;;;;5.10;3.97;;;21.60;99.90;;;;;;4987706;28;20453;-61
2021/08/06 08:42:35;;;;;;;4.67;3.60;;;21.80;99.90;;;;;;4990972;28;20442;-60
2021/08/06 08:45:04;;;;;;;3.10;2.70;;;21.90;99.90;;;;;;4986077;28;20699;-61
2021/08/06 08:47:34;;;;;;;3.23;3.00;;;21.80;99.90;;;;;;4990995;28;20431;-60
2021/08/06 08:50:04;;;;;;;3.10;2.90;;;22.10;99.90;;;;;;4981179;28;20408;-62
2021/08/06 08:52:32;;;;;;;3.03;2.83;;;22.50;99.90;;;;;;4985343;28;20539;-61
2021/08/06 08:54:59;;;;;;;3.07;2.87;;;22.80;99.90;;;;;;4982877;28;20753;-60
2021/08/06 08:57:26;;;;;;;2.90;2.70;;;22.70;99.90;;;;;;4985881;28;20412;-60
2021/08/06 08:59:55;;;;;;;3.50;3.30;;;22.60;99.90;;;;;;4984085;28;20407;-60
2021/08/06 09:02:25;;;;;;;5.80;3.20;;;22.20;99.90;;;;;;4996563;28;20511;-62
2021/08/06 09:05:13;;;;;;;2.97;2.77;;;22.00;99.90;;;;;;4982703;28;20471;-60
2021/08/06 09:07:41;;;;;;;2.87;2.67;;;21.90;99.90;;;;;;4983711;28;20423;-62
2021/08/06 09:10:19;;;;;;;3.10;2.90;;;22.00;99.90;;;;;;4986356;28;20424;-61
2021/08/06 09:12:59;;;;;;;4.43;2.97;;;22.20;99.90;;;;;;4985018;28;20589;-62
2021/08/06 09:15:43;;;;;;;4.23;3.33;;;22.30;99.90;;;;;;4985477;28;20473;-62
2021/08/06 09:18:36;;;;;;;10.23;3.50;;;22.60;99.90;;;;;;4984114;28;20505;-61
2021/08/06 09:21:20;;;;;;;3.40;3.10;;;22.90;99.90;;;;;;4981648;28;20510;-60
2021/08/06 09:23:56;;;;;;;3.40;3.20;;;23.20;99.90;;;;;;4985855;28;20455;-62
2021/08/06 09:26:52;;;;;;;3.60;3.00;;;23.50;99.90;;;;;;4983454;28;20585;-61
2021/08/06 09:29:21;;;;;;;3.57;3.30;;;23.50;99.90;;;;;;4990028;28;20447;-61
2021/08/06 09:31:51;;;;;;;3.57;2.50;;;23.90;99.90;;;;;;4982743;28;20532;-61
2021/08/06 09:34:27;;;;;;;3.50;3.27;;;24.60;99.90;;;;;;4985456;28;20448;-61
2021/08/06 09:37:16;;;;;;;4.00;3.33;;;25.00;99.90;;;;;;4982618;28;20402;-61
2021/08/06 09:39:49;;;;;;;3.90;3.67;;;24.90;99.90;;;;;;4982121;28;20477;-61
2021/08/06 09:42:24;;;;;;;3.30;3.10;;;24.90;99.60;;;;;;4981274;28;20436;-61
2021/08/06 09:45:00;;;;;;;3.57;3.27;;;24.90;99.90;;;;;;4987240;28;20436;-61
2021/08/06 09:47:29;;;;;;;3.00;2.90;;;24.80;99.90;;;;;;5004522;28;20439;-62
2021/08/06 09:49:58;;;;;;;3.40;3.10;;;24.70;99.90;;;;;;4981415;28;20411;-62
2021/08/06 09:52:32;;;;;;;4.10;3.90;;;24.60;99.90;;;;;;4979815;28;20447;-61
2021/08/06 09:55:27;;;;;;;4.00;3.70;;;24.50;99.90;;;;;;4981806;28;20428;-61
2021/08/06 09:57:55;;;;;;;4.10;3.43;;;24.90;99.90;;;;;;4981713;28;20434;-63
2021/08/06 10:00:24;;;;;;;3.33;3.20;;;25.10;99.90;;;;;;4980967;28;20418;-62
2021/08/06 10:02:53;;;;;;;4.17;3.90;;;24.90;99.90;;;;;;4983527;28;20528;-62
2021/08/06 10:05:27;;;;;;;3.90;3.57;;;24.80;99.90;;;;;;4985909;28;20442;-62
2021/08/06 10:07:56;;;;;;;4.53;4.23;;;25.00;98.70;;;;;;4985266;28;20604;-62
2021/08/06 10:10:35;;;;;;;3.80;3.60;;;24.60;98.90;;;;;;4979569;28;20443;-63
2021/08/06 10:13:03;;;;;;;4.37;3.97;;;24.80;98.80;;;;;;4984617;28;20602;-63
2021/08/06 10:15:32;;;;;;;3.70;3.50;;;25.10;97.90;;;;;;4982826;28;20436;-63
2021/08/06 10:18:00;;;;;;;3.73;3.60;;;24.80;97.30;;;;;;4995906;28;20465;-63
2021/08/06 10:20:28;;;;;;;4.70;4.10;;;24.70;96.10;;;;;;4989574;28;20411;-64
2021/08/06 10:22:56;;;;;;;3.57;3.47;;;24.40;94.10;;;;;;4983261;28;20410;-62
2021/08/06 10:25:25;;;;;;;4.10;3.77;;;23.90;94.80;;;;;;4980671;28;20434;-63
2021/08/06 10:27:52;;;;;;;4.07;3.50;;;23.40;96.90;;;;;;4983358;28;20742;-63
2021/08/06 10:30:23;;;;;;;4.07;3.87;;;23.50;98.10;;;;;;4983988;28;20445;-62
2021/08/06 10:33:12;;;;;;;4.03;3.83;;;22.80;96.80;;;;;;4987702;28;20485;-63
2021/08/06 10:35:56;;;;;;;3.77;3.57;;;22.30;97.30;;;;;;4986419;28;20537;-63
2021/08/06 10:38:36;;;;;;;3.63;3.47;;;22.30;99.90;;;;;;4982700;28;20417;-61
2021/08/06 10:41:19;;;;;;;3.73;3.53;;;22.60;98.90;;;;;;4983794;28;20848;-62
2021/08/06 10:44:01;;;;;;;3.70;3.50;;;22.80;97.80;;;;;;4986457;28;20440;-63
2021/08/06 10:46:48;;;;;;;4.07;3.90;;;22.70;96.00;;;;;;4987729;28;20747;-63
2021/08/06 10:49:15;;;;;;;4.37;4.00;;;22.70;96.90;;;;;;4998153;28;20447;-63
2021/08/06 10:51:42;;;;;;;4.53;4.20;;;23.00;97.30;;;;;;4983694;28;20472;-63
2021/08/06 10:54:10;;;;;;;4.03;3.73;;;23.10;97.60;;;;;;4980712;28;20451;-62
2021/08/06 10:56:39;;;;;;;4.33;3.90;;;23.10;97.30;;;;;;5002393;28;20417;-64
2021/08/06 10:59:12;;;;;;;4.37;4.17;;;23.10;97.80;;;;;;4985211;28;20732;-63
2021/08/06 11:01:46;;;;;;;3.30;3.20;;;23.10;98.50;;;;;;4995816;28;20578;-64
2021/08/06 11:04:13;;;;;;;4.17;3.80;;;23.20;97.60;;;;;;4992352;28;20478;-64
2021/08/06 11:06:47;;;;;;;3.37;3.27;;;23.10;95.80;;;;;;5003068;28;20718;-63
2021/08/06 11:09:27;;;;;;;4.00;3.20;;;23.20;96.70;;;;;;5013496;28;20440;-64
2021/08/06 11:12:02;;;;;;;4.20;4.00;;;23.50;95.40;;;;;;5002146;28;20820;-62
2021/08/06 11:14:29;;;;;;;4.00;3.80;;;23.60;94.80;;;;;;5008343;28;20434;-62
2021/08/06 11:17:16;;;;;;;3.80;3.60;;;23.50;94.20;;;;;;4993464;28;20477;-62
2021/08/06 11:19:51;;;;;;;3.60;3.50;;;23.60;93.70;;;;;;4992487;28;20431;-63
2021/08/06 11:22:31;;;;;;;3.50;3.40;;;23.50;95.70;;;;;;4999266;28;20462;-63
2021/08/06 11:25:01;;;;;;;3.80;3.53;;;23.70;93.40;;;;;;4998348;28;20444;-62
2021/08/06 11:27:41;;;;;;;4.40;4.10;;;23.90;92.00;;;;;;4998414;28;20410;-64
2021/08/06 11:30:11;;;;;;;4.20;4.00;;;24.10;92.70;;;;;;4996974;28;20664;-65
2021/08/06 11:32:50;;;;;;;3.90;3.80;;;24.50;91.70;;;;;;5000191;28;20509;-64
2021/08/06 11:35:19;;;;;;;4.10;3.80;;;23.70;90.70;;;;;;4998675;28;20704;-63
2021/08/06 11:37:53;;;;;;;4.87;4.60;;;23.60;92.30;;;;;;4998072;28;20431;-65
2021/08/06 11:40:26;;;;;;;4.20;4.00;;;24.10;93.50;;;;;;4999042;28;20439;-65
2021/08/06 11:42:54;;;;;;;4.63;4.43;;;23.80;92.30;;;;;;4996636;28;20443;-65
2021/08/06 11:45:29;;;;;;;4.50;4.30;;;23.40;92.20;;;;;;4996038;28;20443;-64
2021/08/06 11:48:03;;;;;;;4.77;4.33;;;23.50;91.70;;;;;;4991052;28;20451;-64
2021/08/06 11:50:46;;;;;;;4.33;4.13;;;23.60;91.20;;;;;;4994110;28;20414;-64
2021/08/06 11:53:18;;;;;;;4.90;4.57;;;23.60;92.50;;;;;;5025823;28;20478;-65
2021/08/06 11:55:48;;;;;;;6.50;4.53;;;23.40;91.10;;;;;;4995898;28;20413;-64
2021/08/06 11:58:42;;;;;;;5.43;5.03;;;23.10;91.60;;;;;;4997205;28;20422;-64
2021/08/06 12:01:18;;;;;;;4.30;4.00;;;23.30;92.10;;;;;;4992208;28;20420;-65
2021/08/06 12:03:50;;;;;;;4.27;3.90;;;23.30;93.20;;;;;;4996695;28;20434;-65
2021/08/06 12:06:22;;;;;;;4.30;3.90;;;23.40;93.60;;;;;;4998093;28;20762;-66
2021/08/06 12:08:54;;;;;;;4.50;4.30;;;23.40;92.00;;;;;;4998681;28;20712;-64
2021/08/06 12:11:24;;;;;;;4.40;4.20;;;23.20;93.20;;;;;;4998224;28;20485;-64
2021/08/06 12:13:52;;;;;;;4.50;4.30;;;23.30;93.10;;;;;;4999123;28;20629;-64
2021/08/06 12:16:20;;;;;;;4.40;4.10;;;23.20;93.60;;;;;;4998828;28;20742;-66
2021/08/06 12:18:53;;;;;;;4.37;4.17;;;22.80;94.50;;;;;;4983698;28;20460;-64
2021/08/06 12:21:27;;;;;;;4.77;4.47;;;22.50;93.90;;;;;;5000422;28;20449;-64
2021/08/06 12:24:10;;;;;;;4.67;4.37;;;22.50;92.80;;;;;;4999117;28;20427;-64
2021/08/06 12:26:42;;;;;;;5.07;4.87;;;22.60;92.20;;;;;;4998818;28;20663;-64
2021/08/06 12:29:15;;;;;;;5.00;4.70;;;22.90;93.00;;;;;;4998580;28;20769;-66
2021/08/06 12:32:12;;;;;;;4.27;4.07;;;23.00;92.30;;;;;;4999022;28;20479;-64
2021/08/06 12:34:48;;;;;;;4.60;4.30;;;23.00;94.20;;;;;;4988604;28;20413;-64
2021/08/06 12:37:18;;;;;;;4.40;4.20;;;23.30;92.10;;;;;;5000446;28;20432;-63
2021/08/06 12:39:52;;;;;;;5.13;4.27;;;23.50;92.10;;;;;;4999707;28;20502;-65
2021/08/06 12:42:21;;;;;;;4.93;4.63;;;23.80;91.00;;;;;;4998131;28;20911;-65
2021/08/06 12:45:04;;;;;;;4.57;4.37;;;23.80;91.30;;;;;;4999321;28;20434;-65
2021/08/06 12:47:50;;;;;;;4.67;4.43;;;23.80;91.10;;;;;;5000287;28;20437;-65
2021/08/06 12:50:26;;;;;;;4.30;4.10;;;23.90;91.60;;;;;;4988948;28;20553;-66